sensor_id;sensor_type;location;lat;lon;timestamp;P1;durP1;ratioP1;P2;durP2;ratioP2
50225;SDS011;36113;50.742;6.432;2023-06-19T00:00:16;5.00;;;4.53;;
50225;SDS011;36113;50.742;6.432;2023-06-19T00:02:43;4.63;;;4.05;;
50225;SDS011;36113;50.742;6.432;2023-06-19T00:05:09;5.00;;;4.50;;
50225;SDS011;36113;50.742;6.432;2023-06-19T00:07:35;6.22;;;4.10;;
50225;SDS011;36113;50.742;6.432;2023-06-19T00:10:01;4.60;;;4.22;;
50225;SDS011;36113;50.742;6.432;2023-06-19T00:12:27;4.27;;;3.97;;
50225;SDS011;36113;50.742;6.432;2023-06-19T00:14:52;7.50;;;4.87;;
50225;SDS011;36113;50.742;6.432;2023-06-19T00:17:18;7.60;;;4.70;;
50225;SDS011;36113;50.742;6.432;2023-06-19T00:19:43;4.67;;;4.27;;
50225;SDS011;36113;50.742;6.432;2023-06-19T00:22:09;4.73;;;4.33;;
50225;SDS011;36113;50.742;6.432;2023-06-19T00:24:34;4.70;;;4.40;;
50225;SDS011;36113;50.742;6.432;2023-06-19T00:26:59;5.60;;;4.27;;
50225;SDS011;36113;50.742;6.432;2023-06-19T00:29:28;5.43;;;4.70;;
50225;SDS011;36113;50.742;6.432;2023-06-19T00:34:19;7.72;;;4.93;;
50225;SDS011;36113;50.742;6.432;2023-06-19T00:36:45;5.07;;;4.73;;
50225;SDS011;36113;50.742;6.432;2023-06-19T00:39:10;4.90;;;4.50;;
50225;SDS011;36113;50.742;6.432;2023-06-19T00:41:36;4.47;;;4.17;;
50225;SDS011;36113;50.742;6.432;2023-06-19T00:46:27;5.25;;;4.85;;
50225;SDS011;36113;50.742;6.432;2023-06-19T00:48:53;5.50;;;4.63;;
50225;SDS011;36113;50.742;6.432;2023-06-19T00:51:18;7.90;;;4.50;;
50225;SDS011;36113;50.742;6.432;2023-06-19T00:53:44;5.10;;;4.70;;
50225;SDS011;36113;50.742;6.432;2023-06-19T00:56:09;4.70;;;4.07;;
50225;SDS011;36113;50.742;6.432;2023-06-19T00:58:34;4.90;;;4.50;;
50225;SDS011;36113;50.742;6.432;2023-06-19T01:01:00;4.97;;;4.53;;
50225;SDS011;36113;50.742;6.432;2023-06-19T01:03:26;4.25;;;3.95;;
50225;SDS011;36113;50.742;6.432;2023-06-19T01:05:51;5.23;;;4.73;;
50225;SDS011;36113;50.742;6.432;2023-06-19T01:08:29;5.07;;;4.65;;
50225;SDS011;36113;50.742;6.432;2023-06-19T01:11:23;4.57;;;4.20;;
50225;SDS011;36113;50.742;6.432;2023-06-19T01:13:58;5.03;;;4.53;;
50225;SDS011;36113;50.742;6.432;2023-06-19T01:16:28;5.85;;;4.40;;
50225;SDS011;36113;50.742;6.432;2023-06-19T01:18:55;4.88;;;4.47;;
50225;SDS011;36113;50.742;6.432;2023-06-19T01:21:21;5.03;;;4.57;;
50225;SDS011;36113;50.742;6.432;2023-06-19T01:23:46;5.20;;;4.80;;
50225;SDS011;36113;50.742;6.432;2023-06-19T01:26:12;5.57;;;5.03;;
50225;SDS011;36113;50.742;6.432;2023-06-19T01:28:39;4.70;;;4.33;;
50225;SDS011;36113;50.742;6.432;2023-06-19T01:31:08;5.40;;;4.75;;
50225;SDS011;36113;50.742;6.432;2023-06-19T01:33:36;4.68;;;4.30;;
50225;SDS011;36113;50.742;6.432;2023-06-19T01:36:03;5.20;;;4.68;;
50225;SDS011;36113;50.742;6.432;2023-06-19T01:38:30;4.75;;;4.35;;
50225;SDS011;36113;50.742;6.432;2023-06-19T01:43:23;5.18;;;4.78;;
50225;SDS011;36113;50.742;6.432;2023-06-19T01:45:49;4.63;;;4.25;;
50225;SDS011;36113;50.742;6.432;2023-06-19T01:48:15;5.20;;;4.40;;
50225;SDS011;36113;50.742;6.432;2023-06-19T01:50:49;5.00;;;4.60;;
50225;SDS011;36113;50.742;6.432;2023-06-19T01:53:15;5.28;;;4.78;;
50225;SDS011;36113;50.742;6.432;2023-06-19T01:55:41;5.00;;;4.53;;
50225;SDS011;36113;50.742;6.432;2023-06-19T01:58:07;5.28;;;4.70;;
50225;SDS011;36113;50.742;6.432;2023-06-19T02:00:32;5.80;;;3.97;;
50225;SDS011;36113;50.742;6.432;2023-06-19T02:03:00;4.57;;;4.22;;
50225;SDS011;36113;50.742;6.432;2023-06-19T02:05:26;5.40;;;4.90;;
50225;SDS011;36113;50.742;6.432;2023-06-19T02:07:51;7.60;;;4.80;;
50225;SDS011;36113;50.742;6.432;2023-06-19T02:10:16;5.13;;;4.67;;
50225;SDS011;36113;50.742;6.432;2023-06-19T02:12:42;4.90;;;4.50;;
50225;SDS011;36113;50.742;6.432;2023-06-19T02:15:07;4.87;;;4.47;;
50225;SDS011;36113;50.742;6.432;2023-06-19T02:17:33;4.50;;;4.15;;
50225;SDS011;36113;50.742;6.432;2023-06-19T02:19:58;5.13;;;4.37;;
50225;SDS011;36113;50.742;6.432;2023-06-19T02:22:23;5.17;;;4.77;;
50225;SDS011;36113;50.742;6.432;2023-06-19T02:24:49;6.40;;;5.00;;
50225;SDS011;36113;50.742;6.432;2023-06-19T02:27:14;4.87;;;4.47;;
50225;SDS011;36113;50.742;6.432;2023-06-19T02:29:41;5.18;;;4.68;;
50225;SDS011;36113;50.742;6.432;2023-06-19T02:32:06;5.60;;;5.10;;
50225;SDS011;36113;50.742;6.432;2023-06-19T02:34:32;5.77;;;5.27;;
50225;SDS011;36113;50.742;6.432;2023-06-19T02:36:57;6.10;;;5.50;;
50225;SDS011;36113;50.742;6.432;2023-06-19T02:39:23;5.87;;;5.43;;
50225;SDS011;36113;50.742;6.432;2023-06-19T02:41:48;5.77;;;5.23;;
50225;SDS011;36113;50.742;6.432;2023-06-19T02:44:14;5.43;;;5.03;;
50225;SDS011;36113;50.742;6.432;2023-06-19T02:46:39;5.63;;;5.13;;
50225;SDS011;36113;50.742;6.432;2023-06-19T02:49:05;5.43;;;4.97;;
50225;SDS011;36113;50.742;6.432;2023-06-19T02:51:30;5.50;;;5.00;;
50225;SDS011;36113;50.742;6.432;2023-06-19T02:53:55;5.60;;;5.10;;
50225;SDS011;36113;50.742;6.432;2023-06-19T02:56:21;5.20;;;4.70;;
50225;SDS011;36113;50.742;6.432;2023-06-19T02:58:47;6.10;;;4.78;;
50225;SDS011;36113;50.742;6.432;2023-06-19T03:01:12;5.47;;;4.97;;
50225;SDS011;36113;50.742;6.432;2023-06-19T03:03:38;5.70;;;5.30;;
50225;SDS011;36113;50.742;6.432;2023-06-19T03:06:06;5.60;;;5.20;;
50225;SDS011;36113;50.742;6.432;2023-06-19T03:08:33;5.47;;;5.07;;
50225;SDS011;36113;50.742;6.432;2023-06-19T03:11:02;6.13;;;5.07;;
50225;SDS011;36113;50.742;6.432;2023-06-19T03:13:33;5.10;;;4.60;;
50225;SDS011;36113;50.742;6.432;2023-06-19T03:16:19;4.88;;;4.47;;
50225;SDS011;36113;50.742;6.432;2023-06-19T03:18:46;5.32;;;4.93;;
50225;SDS011;36113;50.742;6.432;2023-06-19T03:21:12;5.93;;;5.33;;
50225;SDS011;36113;50.742;6.432;2023-06-19T03:23:40;5.22;;;4.82;;
50225;SDS011;36113;50.742;6.432;2023-06-19T03:26:06;4.97;;;4.53;;
50225;SDS011;36113;50.742;6.432;2023-06-19T03:28:32;5.18;;;4.68;;
50225;SDS011;36113;50.742;6.432;2023-06-19T03:30:57;5.00;;;4.60;;
50225;SDS011;36113;50.742;6.432;2023-06-19T03:33:23;3.73;;;3.53;;
50225;SDS011;36113;50.742;6.432;2023-06-19T03:35:48;4.70;;;4.07;;
50225;SDS011;36113;50.742;6.432;2023-06-19T03:38:14;4.47;;;4.17;;
50225;SDS011;36113;50.742;6.432;2023-06-19T03:40:39;5.57;;;4.40;;
50225;SDS011;36113;50.742;6.432;2023-06-19T03:43:05;4.90;;;3.93;;
50225;SDS011;36113;50.742;6.432;2023-06-19T03:45:30;4.77;;;4.20;;
50225;SDS011;36113;50.742;6.432;2023-06-19T03:47:55;7.80;;;4.40;;
50225;SDS011;36113;50.742;6.432;2023-06-19T03:50:21;5.07;;;4.67;;
50225;SDS011;36113;50.742;6.432;2023-06-19T03:52:46;4.60;;;4.20;;
50225;SDS011;36113;50.742;6.432;2023-06-19T03:55:11;4.20;;;3.90;;
50225;SDS011;36113;50.742;6.432;2023-06-19T03:57:36;4.80;;;4.33;;
50225;SDS011;36113;50.742;6.432;2023-06-19T04:00:02;4.83;;;4.43;;
50225;SDS011;36113;50.742;6.432;2023-06-19T04:02:32;6.18;;;4.18;;
50225;SDS011;36113;50.742;6.432;2023-06-19T04:04:58;6.50;;;4.50;;
50225;SDS011;36113;50.742;6.432;2023-06-19T04:07:23;5.00;;;4.60;;
50225;SDS011;36113;50.742;6.432;2023-06-19T04:09:48;4.57;;;4.23;;
50225;SDS011;36113;50.742;6.432;2023-06-19T04:12:13;4.33;;;4.03;;
50225;SDS011;36113;50.742;6.432;2023-06-19T04:14:39;5.93;;;4.70;;
50225;SDS011;36113;50.742;6.432;2023-06-19T04:17:04;4.90;;;4.50;;
50225;SDS011;36113;50.742;6.432;2023-06-19T04:19:30;5.60;;;4.30;;
50225;SDS011;36113;50.742;6.432;2023-06-19T04:21:55;5.00;;;4.50;;
50225;SDS011;36113;50.742;6.432;2023-06-19T04:24:20;4.67;;;3.83;;
50225;SDS011;36113;50.742;6.432;2023-06-19T04:26:46;4.30;;;4.00;;
50225;SDS011;36113;50.742;6.432;2023-06-19T04:29:14;5.80;;;4.43;;
50225;SDS011;36113;50.742;6.432;2023-06-19T04:31:43;4.28;;;3.88;;
50225;SDS011;36113;50.742;6.432;2023-06-19T04:34:11;4.65;;;4.25;;
50225;SDS011;36113;50.742;6.432;2023-06-19T04:36:37;3.57;;;3.37;;
50225;SDS011;36113;50.742;6.432;2023-06-19T04:39:02;3.87;;;3.57;;
50225;SDS011;36113;50.742;6.432;2023-06-19T04:41:28;3.43;;;3.07;;
50225;SDS011;36113;50.742;6.432;2023-06-19T04:43:53;4.23;;;3.63;;
50225;SDS011;36113;50.742;6.432;2023-06-19T04:46:18;4.00;;;3.70;;
50225;SDS011;36113;50.742;6.432;2023-06-19T04:48:45;3.83;;;3.53;;
50225;SDS011;36113;50.742;6.432;2023-06-19T04:51:15;3.70;;;3.40;;
50225;SDS011;36113;50.742;6.432;2023-06-19T04:53:45;3.13;;;2.92;;
50225;SDS011;36113;50.742;6.432;2023-06-19T04:56:10;4.10;;;3.50;;
50225;SDS011;36113;50.742;6.432;2023-06-19T04:58:35;4.20;;;3.80;;
50225;SDS011;36113;50.742;6.432;2023-06-19T05:01:01;3.57;;;3.30;;
50225;SDS011;36113;50.742;6.432;2023-06-19T05:03:26;4.73;;;3.37;;
50225;SDS011;36113;50.742;6.432;2023-06-19T05:05:51;3.20;;;3.00;;
50225;SDS011;36113;50.742;6.432;2023-06-19T05:08:17;3.07;;;2.87;;
50225;SDS011;36113;50.742;6.432;2023-06-19T05:10:42;4.87;;;2.57;;
50225;SDS011;36113;50.742;6.432;2023-06-19T05:13:07;3.00;;;2.80;;
50225;SDS011;36113;50.742;6.432;2023-06-19T05:15:33;3.20;;;2.90;;
50225;SDS011;36113;50.742;6.432;2023-06-19T05:17:58;4.07;;;2.43;;
50225;SDS011;36113;50.742;6.432;2023-06-19T05:20:23;6.80;;;2.67;;
50225;SDS011;36113;50.742;6.432;2023-06-19T05:22:49;2.47;;;2.30;;
50225;SDS011;36113;50.742;6.432;2023-06-19T05:25:14;3.93;;;2.80;;
50225;SDS011;36113;50.742;6.432;2023-06-19T05:27:39;1.90;;;1.80;;
50225;SDS011;36113;50.742;6.432;2023-06-19T05:30:05;2.57;;;1.93;;
50225;SDS011;36113;50.742;6.432;2023-06-19T05:32:31;2.53;;;1.85;;
50225;SDS011;36113;50.742;6.432;2023-06-19T05:34:56;2.03;;;1.83;;
50225;SDS011;36113;50.742;6.432;2023-06-19T05:37:21;1.97;;;1.77;;
50225;SDS011;36113;50.742;6.432;2023-06-19T05:39:47;4.13;;;1.97;;
50225;SDS011;36113;50.742;6.432;2023-06-19T05:42:13;1.70;;;1.58;;
50225;SDS011;36113;50.742;6.432;2023-06-19T05:44:38;2.70;;;1.90;;
50225;SDS011;36113;50.742;6.432;2023-06-19T05:47:05;1.75;;;1.65;;
50225;SDS011;36113;50.742;6.432;2023-06-19T05:49:30;1.27;;;1.27;;
50225;SDS011;36113;50.742;6.432;2023-06-19T05:51:56;3.10;;;1.27;;
50225;SDS011;36113;50.742;6.432;2023-06-19T05:54:23;1.33;;;1.30;;
50225;SDS011;36113;50.742;6.432;2023-06-19T05:56:49;1.23;;;1.13;;
50225;SDS011;36113;50.742;6.432;2023-06-19T05:59:15;1.40;;;1.40;;
50225;SDS011;36113;50.742;6.432;2023-06-19T06:01:40;1.13;;;1.13;;
50225;SDS011;36113;50.742;6.432;2023-06-19T06:04:06;0.87;;;0.87;;
50225;SDS011;36113;50.742;6.432;2023-06-19T06:06:31;1.10;;;1.10;;
50225;SDS011;36113;50.742;6.432;2023-06-19T06:08:56;1.30;;;1.20;;
50225;SDS011;36113;50.742;6.432;2023-06-19T06:11:22;1.17;;;1.17;;
50225;SDS011;36113;50.742;6.432;2023-06-19T06:13:47;1.67;;;1.23;;
50225;SDS011;36113;50.742;6.432;2023-06-19T06:16:13;1.10;;;1.10;;
50225;SDS011;36113;50.742;6.432;2023-06-19T06:18:39;1.50;;;1.00;;
50225;SDS011;36113;50.742;6.432;2023-06-19T06:21:04;1.00;;;1.00;;
50225;SDS011;36113;50.742;6.432;2023-06-19T06:23:29;1.97;;;1.07;;
50225;SDS011;36113;50.742;6.432;2023-06-19T06:25:55;6.67;;;1.17;;
50225;SDS011;36113;50.742;6.432;2023-06-19T06:28:26;0.98;;;0.98;;
50225;SDS011;36113;50.742;6.432;2023-06-19T06:30:51;2.43;;;1.33;;
50225;SDS011;36113;50.742;6.432;2023-06-19T06:33:17;1.07;;;1.07;;
50225;SDS011;36113;50.742;6.432;2023-06-19T06:35:42;1.10;;;1.10;;
50225;SDS011;36113;50.742;6.432;2023-06-19T06:38:08;1.23;;;1.08;;
50225;SDS011;36113;50.742;6.432;2023-06-19T06:40:34;1.00;;;1.00;;
50225;SDS011;36113;50.742;6.432;2023-06-19T06:42:59;2.20;;;1.43;;
50225;SDS011;36113;50.742;6.432;2023-06-19T06:45:25;1.57;;;1.47;;
50225;SDS011;36113;50.742;6.432;2023-06-19T06:47:50;1.90;;;1.57;;
50225;SDS011;36113;50.742;6.432;2023-06-19T06:50:15;2.33;;;1.60;;
50225;SDS011;36113;50.742;6.432;2023-06-19T06:52:41;1.30;;;1.20;;
50225;SDS011;36113;50.742;6.432;2023-06-19T06:55:06;1.60;;;1.50;;
50225;SDS011;36113;50.742;6.432;2023-06-19T06:57:32;1.70;;;1.13;;
50225;SDS011;36113;50.742;6.432;2023-06-19T06:59:57;2.83;;;1.30;;
50225;SDS011;36113;50.742;6.432;2023-06-19T07:02:23;1.20;;;1.20;;
50225;SDS011;36113;50.742;6.432;2023-06-19T07:04:48;1.57;;;1.47;;
50225;SDS011;36113;50.742;6.432;2023-06-19T07:07:14;3.00;;;1.58;;
50225;SDS011;36113;50.742;6.432;2023-06-19T07:09:40;2.70;;;1.83;;
50225;SDS011;36113;50.742;6.432;2023-06-19T07:12:05;1.17;;;1.17;;
50225;SDS011;36113;50.742;6.432;2023-06-19T07:14:32;1.25;;;1.25;;
50225;SDS011;36113;50.742;6.432;2023-06-19T07:16:57;1.53;;;1.40;;
50225;SDS011;36113;50.742;6.432;2023-06-19T07:19:22;1.80;;;1.60;;
50225;SDS011;36113;50.742;6.432;2023-06-19T07:21:49;1.30;;;1.30;;
50225;SDS011;36113;50.742;6.432;2023-06-19T07:24:16;1.48;;;1.38;;
50225;SDS011;36113;50.742;6.432;2023-06-19T07:26:41;1.73;;;1.63;;
50225;SDS011;36113;50.742;6.432;2023-06-19T07:29:06;1.87;;;1.77;;
50225;SDS011;36113;50.742;6.432;2023-06-19T07:31:32;1.50;;;1.40;;
50225;SDS011;36113;50.742;6.432;2023-06-19T07:33:57;1.73;;;1.57;;
50225;SDS011;36113;50.742;6.432;2023-06-19T07:36:22;2.10;;;2.00;;
50225;SDS011;36113;50.742;6.432;2023-06-19T07:38:48;2.90;;;2.10;;
50225;SDS011;36113;50.742;6.432;2023-06-19T07:41:13;2.60;;;2.40;;
50225;SDS011;36113;50.742;6.432;2023-06-19T07:43:38;2.17;;;1.83;;
50225;SDS011;36113;50.742;6.432;2023-06-19T07:46:03;2.17;;;1.80;;
50225;SDS011;36113;50.742;6.432;2023-06-19T07:48:29;2.70;;;2.30;;
50225;SDS011;36113;50.742;6.432;2023-06-19T07:50:55;1.90;;;1.80;;
50225;SDS011;36113;50.742;6.432;2023-06-19T07:53:21;2.20;;;2.05;;
50225;SDS011;36113;50.742;6.432;2023-06-19T07:55:46;2.70;;;2.13;;
50225;SDS011;36113;50.742;6.432;2023-06-19T07:58:11;2.27;;;2.17;;
50225;SDS011;36113;50.742;6.432;2023-06-19T08:00:37;3.30;;;2.33;;
50225;SDS011;36113;50.742;6.432;2023-06-19T08:03:02;2.00;;;1.80;;
50225;SDS011;36113;50.742;6.432;2023-06-19T08:05:28;2.20;;;2.10;;
50225;SDS011;36113;50.742;6.432;2023-06-19T08:07:53;2.30;;;2.10;;
50225;SDS011;36113;50.742;6.432;2023-06-19T08:10:18;2.90;;;2.60;;
50225;SDS011;36113;50.742;6.432;2023-06-19T08:12:44;2.50;;;2.30;;
50225;SDS011;36113;50.742;6.432;2023-06-19T08:15:10;3.05;;;2.28;;
50225;SDS011;36113;50.742;6.432;2023-06-19T08:17:36;6.28;;;3.42;;
50225;SDS011;36113;50.742;6.432;2023-06-19T08:20:01;7.53;;;2.60;;
50225;SDS011;36113;50.742;6.432;2023-06-19T08:22:30;3.10;;;2.83;;
50225;SDS011;36113;50.742;6.432;2023-06-19T08:24:55;2.60;;;2.40;;
50225;SDS011;36113;50.742;6.432;2023-06-19T08:27:21;5.83;;;2.67;;
50225;SDS011;36113;50.742;6.432;2023-06-19T08:29:46;3.53;;;2.40;;
50225;SDS011;36113;50.742;6.432;2023-06-19T08:32:11;2.90;;;2.70;;
50225;SDS011;36113;50.742;6.432;2023-06-19T08:34:36;2.87;;;2.50;;
50225;SDS011;36113;50.742;6.432;2023-06-19T08:37:03;4.38;;;2.70;;
50225;SDS011;36113;50.742;6.432;2023-06-19T08:39:28;9.07;;;2.60;;
50225;SDS011;36113;50.742;6.432;2023-06-19T08:41:54;2.60;;;2.50;;
50225;SDS011;36113;50.742;6.432;2023-06-19T08:44:19;8.27;;;3.00;;
50225;SDS011;36113;50.742;6.432;2023-06-19T08:46:45;2.17;;;2.07;;
50225;SDS011;36113;50.742;6.432;2023-06-19T08:49:10;3.00;;;2.40;;
50225;SDS011;36113;50.742;6.432;2023-06-19T08:51:36;3.37;;;2.53;;
50225;SDS011;36113;50.742;6.432;2023-06-19T08:54:02;4.63;;;2.95;;
50225;SDS011;36113;50.742;6.432;2023-06-19T08:56:29;3.00;;;2.70;;
50225;SDS011;36113;50.742;6.432;2023-06-19T08:59:07;3.58;;;2.60;;
50225;SDS011;36113;50.742;6.432;2023-06-19T09:01:34;6.07;;;2.65;;
50225;SDS011;36113;50.742;6.432;2023-06-19T09:03:59;3.23;;;2.77;;
50225;SDS011;36113;50.742;6.432;2023-06-19T09:06:24;3.33;;;2.73;;
50225;SDS011;36113;50.742;6.432;2023-06-19T09:08:59;2.80;;;2.60;;
50225;SDS011;36113;50.742;6.432;2023-06-19T09:11:24;3.53;;;3.05;;
50225;SDS011;36113;50.742;6.432;2023-06-19T09:13:55;2.93;;;2.73;;
50225;SDS011;36113;50.742;6.432;2023-06-19T09:16:21;3.38;;;2.97;;
50225;SDS011;36113;50.742;6.432;2023-06-19T09:18:48;3.95;;;2.70;;
50225;SDS011;36113;50.742;6.432;2023-06-19T09:21:20;4.90;;;3.10;;
50225;SDS011;36113;50.742;6.432;2023-06-19T09:23:48;5.13;;;2.85;;
50225;SDS011;36113;50.742;6.432;2023-06-19T09:26:16;3.58;;;3.28;;
50225;SDS011;36113;50.742;6.432;2023-06-19T09:28:43;4.05;;;3.22;;
50225;SDS011;36113;50.742;6.432;2023-06-19T09:31:08;5.00;;;3.13;;
50225;SDS011;36113;50.742;6.432;2023-06-19T09:33:34;5.63;;;3.80;;
50225;SDS011;36113;50.742;6.432;2023-06-19T09:36:01;5.85;;;3.47;;
50225;SDS011;36113;50.742;6.432;2023-06-19T09:38:27;3.55;;;2.75;;
50225;SDS011;36113;50.742;6.432;2023-06-19T09:41:01;5.05;;;2.88;;
50225;SDS011;36113;50.742;6.432;2023-06-19T09:46:03;3.63;;;3.33;;
50225;SDS011;36113;50.742;6.432;2023-06-19T09:48:32;3.80;;;3.20;;
50225;SDS011;36113;50.742;6.432;2023-06-19T09:51:00;3.85;;;3.20;;
50225;SDS011;36113;50.742;6.432;2023-06-19T09:53:31;3.30;;;3.00;;
50225;SDS011;36113;50.742;6.432;2023-06-19T09:55:57;3.30;;;3.10;;
50225;SDS011;36113;50.742;6.432;2023-06-19T09:58:23;3.70;;;3.20;;
50225;SDS011;36113;50.742;6.432;2023-06-19T10:00:49;4.07;;;3.13;;
50225;SDS011;36113;50.742;6.432;2023-06-19T10:03:16;4.05;;;3.42;;
50225;SDS011;36113;50.742;6.432;2023-06-19T10:05:41;4.13;;;2.92;;
50225;SDS011;36113;50.742;6.432;2023-06-19T10:08:07;4.95;;;2.95;;
50225;SDS011;36113;50.742;6.432;2023-06-19T10:10:33;3.33;;;3.05;;
50225;SDS011;36113;50.742;6.432;2023-06-19T10:12:59;3.65;;;3.35;;
50225;SDS011;36113;50.742;6.432;2023-06-19T10:15:39;3.40;;;3.13;;
50225;SDS011;36113;50.742;6.432;2023-06-19T10:18:07;4.22;;;3.05;;
50225;SDS011;36113;50.742;6.432;2023-06-19T10:20:33;3.57;;;3.27;;
50225;SDS011;36113;50.742;6.432;2023-06-19T10:25:40;4.47;;;3.63;;
50225;SDS011;36113;50.742;6.432;2023-06-19T10:30:57;6.47;;;2.88;;
50225;SDS011;36113;50.742;6.432;2023-06-19T10:33:23;4.53;;;3.05;;
50225;SDS011;36113;50.742;6.432;2023-06-19T10:35:49;5.18;;;3.65;;
50225;SDS011;36113;50.742;6.432;2023-06-19T10:38:15;2.92;;;2.65;;
50225;SDS011;36113;50.742;6.432;2023-06-19T10:40:41;5.07;;;3.00;;
50225;SDS011;36113;50.742;6.432;2023-06-19T10:43:08;4.82;;;3.08;;
50225;SDS011;36113;50.742;6.432;2023-06-19T10:45:33;3.30;;;3.03;;
50225;SDS011;36113;50.742;6.432;2023-06-19T10:48:00;3.17;;;2.90;;
50225;SDS011;36113;50.742;6.432;2023-06-19T10:50:29;3.13;;;2.92;;
50225;SDS011;36113;50.742;6.432;2023-06-19T10:52:59;2.97;;;2.67;;
50225;SDS011;36113;50.742;6.432;2023-06-19T10:55:24;2.70;;;2.50;;
50225;SDS011;36113;50.742;6.432;2023-06-19T10:57:49;2.83;;;2.63;;
50225;SDS011;36113;50.742;6.432;2023-06-19T11:02:49;3.67;;;2.72;;
50225;SDS011;36113;50.742;6.432;2023-06-19T11:05:14;4.20;;;2.97;;
50225;SDS011;36113;50.742;6.432;2023-06-19T11:07:40;3.07;;;2.87;;
50225;SDS011;36113;50.742;6.432;2023-06-19T11:10:05;2.90;;;2.70;;
50225;SDS011;36113;50.742;6.432;2023-06-19T11:14:58;4.45;;;3.25;;
50225;SDS011;36113;50.742;6.432;2023-06-19T11:17:24;2.50;;;2.40;;
50225;SDS011;36113;50.742;6.432;2023-06-19T11:19:50;8.37;;;3.20;;
50225;SDS011;36113;50.742;6.432;2023-06-19T11:22:16;3.72;;;2.90;;
50225;SDS011;36113;50.742;6.432;2023-06-19T11:24:44;4.63;;;3.00;;
50225;SDS011;36113;50.742;6.432;2023-06-19T11:27:18;3.13;;;2.90;;
50225;SDS011;36113;50.742;6.432;2023-06-19T11:29:55;3.10;;;2.60;;
50225;SDS011;36113;50.742;6.432;2023-06-19T11:32:23;2.75;;;2.55;;
50225;SDS011;36113;50.742;6.432;2023-06-19T11:34:55;2.83;;;2.63;;
50225;SDS011;36113;50.742;6.432;2023-06-19T11:37:21;3.40;;;3.10;;
50225;SDS011;36113;50.742;6.432;2023-06-19T11:39:47;2.45;;;2.25;;
50225;SDS011;36113;50.742;6.432;2023-06-19T11:42:14;3.17;;;2.80;;
50225;SDS011;36113;50.742;6.432;2023-06-19T11:44:52;3.72;;;2.97;;
50225;SDS011;36113;50.742;6.432;2023-06-19T11:47:21;3.10;;;2.80;;
50225;SDS011;36113;50.742;6.432;2023-06-19T11:49:48;3.80;;;2.60;;
50225;SDS011;36113;50.742;6.432;2023-06-19T11:52:14;9.70;;;2.60;;
50225;SDS011;36113;50.742;6.432;2023-06-19T11:54:40;3.35;;;3.05;;
50225;SDS011;36113;50.742;6.432;2023-06-19T11:57:05;3.40;;;3.10;;
50225;SDS011;36113;50.742;6.432;2023-06-19T11:59:31;3.23;;;3.03;;
50225;SDS011;36113;50.742;6.432;2023-06-19T12:01:56;4.23;;;2.93;;
50225;SDS011;36113;50.742;6.432;2023-06-19T12:04:23;4.32;;;3.08;;
50225;SDS011;36113;50.742;6.432;2023-06-19T12:06:49;3.35;;;2.65;;
50225;SDS011;36113;50.742;6.432;2023-06-19T12:09:14;3.47;;;2.87;;
50225;SDS011;36113;50.742;6.432;2023-06-19T12:11:40;3.17;;;2.78;;
50225;SDS011;36113;50.742;6.432;2023-06-19T12:14:05;4.53;;;2.87;;
50225;SDS011;36113;50.742;6.432;2023-06-19T12:16:31;5.00;;;2.93;;
50225;SDS011;36113;50.742;6.432;2023-06-19T12:18:56;4.90;;;3.00;;
50225;SDS011;36113;50.742;6.432;2023-06-19T12:21:21;5.60;;;3.07;;
50225;SDS011;36113;50.742;6.432;2023-06-19T12:23:47;3.50;;;3.07;;
50225;SDS011;36113;50.742;6.432;2023-06-19T12:28:38;4.07;;;3.00;;
50225;SDS011;36113;50.742;6.432;2023-06-19T12:31:03;3.70;;;2.87;;
50225;SDS011;36113;50.742;6.432;2023-06-19T12:33:29;2.92;;;2.63;;
50225;SDS011;36113;50.742;6.432;2023-06-19T12:35:58;4.18;;;3.40;;
50225;SDS011;36113;50.742;6.432;2023-06-19T12:38:23;4.70;;;2.97;;
50225;SDS011;36113;50.742;6.432;2023-06-19T12:40:49;3.93;;;3.30;;
50225;SDS011;36113;50.742;6.432;2023-06-19T12:43:14;3.27;;;2.97;;
50225;SDS011;36113;50.742;6.432;2023-06-19T12:45:39;2.78;;;2.45;;
50225;SDS011;36113;50.742;6.432;2023-06-19T12:48:06;3.03;;;2.83;;
50225;SDS011;36113;50.742;6.432;2023-06-19T12:50:31;3.20;;;2.88;;
50225;SDS011;36113;50.742;6.432;2023-06-19T12:52:57;4.10;;;2.60;;
50225;SDS011;36113;50.742;6.432;2023-06-19T12:55:22;3.03;;;2.83;;
50225;SDS011;36113;50.742;6.432;2023-06-19T12:57:47;4.30;;;2.97;;
50225;SDS011;36113;50.742;6.432;2023-06-19T13:00:13;4.80;;;2.80;;
50225;SDS011;36113;50.742;6.432;2023-06-19T13:02:39;2.72;;;2.53;;
50225;SDS011;36113;50.742;6.432;2023-06-19T13:05:05;3.30;;;2.83;;
50225;SDS011;36113;50.742;6.432;2023-06-19T13:07:33;3.50;;;2.50;;
50225;SDS011;36113;50.742;6.432;2023-06-19T13:09:59;2.60;;;2.40;;
50225;SDS011;36113;50.742;6.432;2023-06-19T13:12:24;3.30;;;3.03;;
50225;SDS011;36113;50.742;6.432;2023-06-19T13:14:49;3.17;;;2.97;;
50225;SDS011;36113;50.742;6.432;2023-06-19T13:17:15;4.67;;;3.07;;
50225;SDS011;36113;50.742;6.432;2023-06-19T13:19:40;3.57;;;2.80;;
50225;SDS011;36113;50.742;6.432;2023-06-19T13:22:05;3.35;;;3.05;;
50225;SDS011;36113;50.742;6.432;2023-06-19T13:24:31;3.30;;;2.80;;
50225;SDS011;36113;50.742;6.432;2023-06-19T13:26:56;3.97;;;2.60;;
50225;SDS011;36113;50.742;6.432;2023-06-19T13:29:22;3.67;;;3.10;;
50225;SDS011;36113;50.742;6.432;2023-06-19T13:31:47;3.50;;;2.97;;
50225;SDS011;36113;50.742;6.432;2023-06-19T13:34:12;4.00;;;3.70;;
50225;SDS011;36113;50.742;6.432;2023-06-19T13:36:38;3.33;;;2.90;;
50225;SDS011;36113;50.742;6.432;2023-06-19T13:39:04;3.97;;;3.38;;
50225;SDS011;36113;50.742;6.432;2023-06-19T13:41:30;4.10;;;3.25;;
50225;SDS011;36113;50.742;6.432;2023-06-19T13:43:57;3.03;;;2.83;;
50225;SDS011;36113;50.742;6.432;2023-06-19T13:46:24;2.70;;;2.50;;
50225;SDS011;36113;50.742;6.432;2023-06-19T13:48:49;3.17;;;2.80;;
50225;SDS011;36113;50.742;6.432;2023-06-19T13:51:17;2.67;;;2.47;;
50225;SDS011;36113;50.742;6.432;2023-06-19T13:53:43;3.13;;;2.88;;
50225;SDS011;36113;50.742;6.432;2023-06-19T13:56:09;3.00;;;2.70;;
50225;SDS011;36113;50.742;6.432;2023-06-19T13:58:34;2.93;;;2.73;;
50225;SDS011;36113;50.742;6.432;2023-06-19T14:01:00;2.90;;;2.70;;
50225;SDS011;36113;50.742;6.432;2023-06-19T14:03:25;3.30;;;2.60;;
50225;SDS011;36113;50.742;6.432;2023-06-19T14:05:50;2.87;;;2.63;;
50225;SDS011;36113;50.742;6.432;2023-06-19T14:08:16;4.40;;;2.63;;
50225;SDS011;36113;50.742;6.432;2023-06-19T14:10:41;5.40;;;3.00;;
50225;SDS011;36113;50.742;6.432;2023-06-19T14:13:06;5.03;;;3.10;;
50225;SDS011;36113;50.742;6.432;2023-06-19T14:15:34;4.38;;;3.00;;
50225;SDS011;36113;50.742;6.432;2023-06-19T14:17:59;5.73;;;2.97;;
50225;SDS011;36113;50.742;6.432;2023-06-19T14:20:24;3.33;;;3.13;;
50225;SDS011;36113;50.742;6.432;2023-06-19T14:22:50;2.83;;;2.63;;
50225;SDS011;36113;50.742;6.432;2023-06-19T14:25:15;2.83;;;2.63;;
50225;SDS011;36113;50.742;6.432;2023-06-19T14:27:40;8.03;;;2.83;;
50225;SDS011;36113;50.742;6.432;2023-06-19T14:30:06;2.80;;;2.60;;
50225;SDS011;36113;50.742;6.432;2023-06-19T14:32:33;4.85;;;2.65;;
50225;SDS011;36113;50.742;6.432;2023-06-19T14:35:00;6.38;;;2.58;;
50225;SDS011;36113;50.742;6.432;2023-06-19T14:37:25;3.07;;;2.87;;
50225;SDS011;36113;50.742;6.432;2023-06-19T14:39:50;3.53;;;2.60;;
50225;SDS011;36113;50.742;6.432;2023-06-19T14:42:16;9.00;;;3.00;;
50225;SDS011;36113;50.742;6.432;2023-06-19T14:44:41;3.30;;;3.00;;
50225;SDS011;36113;50.742;6.432;2023-06-19T14:47:06;2.67;;;2.53;;
50225;SDS011;36113;50.742;6.432;2023-06-19T14:49:32;4.23;;;2.60;;
50225;SDS011;36113;50.742;6.432;2023-06-19T14:51:57;3.37;;;2.87;;
50225;SDS011;36113;50.742;6.432;2023-06-19T14:54:22;3.60;;;2.80;;
50225;SDS011;36113;50.742;6.432;2023-06-19T14:56:48;3.13;;;2.92;;
50225;SDS011;36113;50.742;6.432;2023-06-19T14:59:15;4.55;;;3.00;;
50225;SDS011;36113;50.742;6.432;2023-06-19T15:01:40;3.00;;;2.70;;
50225;SDS011;36113;50.742;6.432;2023-06-19T15:04:06;3.13;;;2.83;;